createdAt,value
2018-02-10T00:00:11.542Z,59.95
2018-02-10T00:01:11.284Z,60.05
2018-02-10T00:02:11.494Z,60.24
2018-02-10T00:03:11.352Z,60.24
2018-02-10T00:04:11.355Z,60.24
2018-02-10T00:05:11.406Z,60.24
2018-02-10T00:06:11.469Z,60.24
2018-02-10T00:07:11.755Z,60.05
2018-02-10T00:08:11.483Z,60.24
2018-02-10T00:09:11.501Z,60.34
2018-02-10T00:10:11.533Z,60.05
2018-02-10T00:11:11.602Z,60.34
2018-02-10T00:12:11.639Z,60.53
2018-02-10T00:13:12.122Z,60.43
2018-02-10T00:14:11.646Z,60.34
2018-02-10T00:15:11.736Z,60.24
2018-02-10T00:16:11.723Z,60.24
2018-02-10T00:17:11.803Z,60.24
2018-02-10T00:18:11.767Z,60.24
2018-02-10T00:19:11.807Z,60.14
2018-02-10T00:20:12.187Z,60.34
2018-02-10T00:21:11.853Z,60.34
2018-02-10T00:22:11.888Z,60.24
2018-02-10T00:23:11.913Z,60.05
2018-02-10T00:24:12.101Z,59.76
2018-02-10T00:25:11.969Z,60.05
2018-02-10T00:26:12.009Z,59.76
2018-02-10T00:27:12.337Z,59.66
2018-02-10T00:28:12.061Z,59.95
2018-02-10T00:29:12.092Z,59.66
2018-02-10T00:30:12.177Z,59.76
2018-02-10T00:31:12.149Z,59.66
2018-02-10T00:32:12.181Z,59.95
2018-02-10T00:33:12.270Z,59.95
2018-02-10T00:34:12.546Z,59.95
2018-02-10T00:35:12.313Z,59.86
2018-02-10T00:36:12.307Z,59.76
2018-02-10T00:37:12.324Z,59.76
2018-02-10T00:38:12.358Z,59.86
2018-02-10T00:39:12.386Z,59.95
2018-02-10T00:40:12.834Z,59.76
2018-02-10T00:41:12.447Z,59.95
2018-02-10T00:42:12.474Z,60.82
2018-02-10T00:43:12.504Z,60.72
2018-02-10T00:44:12.534Z,60.63
2018-02-10T00:45:12.614Z,60.53
2018-02-10T00:46:12.891Z,60.53
2018-02-10T00:47:12.625Z,60.24
2018-02-10T00:48:12.649Z,60.24
2018-02-10T00:49:12.697Z,60.24
2018-02-10T00:50:12.709Z,60.24
2018-02-10T00:51:12.930Z,60.05
2018-02-10T00:52:13.083Z,60.05
2018-02-10T00:53:12.796Z,60.05
2018-02-10T00:54:12.833Z,60.14
2018-02-10T00:55:12.852Z,60.14
2018-02-10T00:56:12.886Z,60.24
2018-02-10T00:57:12.916Z,59.95
2018-02-10T00:58:13.322Z,59.95
2018-02-10T00:59:12.982Z,60.34
2018-02-10T01:00:13.006Z,60.14
2018-02-10T01:01:13.029Z,60.14
2018-02-10T01:02:13.170Z,60.05
2018-02-10T01:03:13.108Z,60.34
2018-02-10T01:04:13.627Z,60.24
2018-02-10T01:05:13.187Z,60.05
2018-02-10T01:06:13.228Z,60.14
2018-02-10T01:07:13.208Z,60.24
2018-02-10T01:08:13.294Z,60.24
2018-02-10T01:09:13.350Z,60.05
2018-02-10T01:10:13.599Z,60.24
2018-02-10T01:11:13.413Z,60.05
2018-02-10T01:12:13.364Z,59.95
2018-02-10T01:13:13.413Z,60.05
2018-02-10T01:14:13.422Z,59.95
2018-02-10T01:15:13.449Z,60.05
2018-02-10T01:16:13.943Z,60.05
2018-02-10T01:17:13.503Z,60.05
2018-02-10T01:18:13.532Z,59.86
2018-02-10T01:19:13.562Z,59.95
2018-02-10T01:20:13.599Z,60.14
2018-02-10T01:21:13.640Z,60.05
2018-02-10T01:22:13.963Z,60.05
2018-02-10T01:23:13.682Z,60.05
2018-02-10T01:24:13.714Z,60.24
2018-02-10T01:25:13.741Z,59.95
2018-02-10T01:26:13.771Z,60.14
2018-02-10T01:27:13.850Z,60.05
2018-02-10T01:28:14.137Z,60.05
2018-02-10T01:29:13.857Z,60.24
2018-02-10T01:30:13.900Z,60.05
2018-02-10T01:31:13.916Z,60.05
2018-02-10T01:32:14.177Z,59.86
2018-02-10T01:33:13.975Z,60.05
2018-02-10T01:34:14.303Z,59.86
2018-02-10T01:35:14.034Z,59.76
2018-02-10T01:36:14.061Z,59.95
2018-02-10T01:37:14.093Z,60.24
2018-02-10T01:38:14.122Z,60.05
2018-02-10T01:39:14.156Z,60.05
2018-02-10T01:40:14.482Z,59.86
2018-02-10T01:41:14.224Z,59.95
2018-02-10T01:42:14.292Z,60.05
2018-02-10T01:43:14.319Z,60.05
2018-02-10T01:44:14.302Z,60.05
2018-02-10T01:45:14.335Z,59.76
2018-02-10T01:46:14.658Z,60.05
2018-02-10T01:47:14.391Z,60.05
2018-02-10T01:48:14.479Z,60.14
2018-02-10T01:49:14.449Z,60.63
2018-02-10T01:50:14.500Z,60.63
2018-02-10T01:51:14.510Z,60.34
2018-02-10T01:52:14.838Z,60.05
2018-02-10T01:53:14.774Z,60.14
2018-02-10T01:54:14.598Z,60.14
2018-02-10T01:55:14.637Z,60.14
2018-02-10T01:56:14.650Z,60.24
2018-02-10T01:57:14.774Z,60.14
2018-02-10T01:58:15.015Z,60.24
2018-02-10T01:59:14.745Z,60.14
2018-02-10T02:00:14.777Z,60.14
2018-02-10T02:01:14.815Z,60.24
2018-02-10T02:02:14.829Z,60.24
2018-02-10T02:03:14.883Z,60.05
2018-02-10T02:04:15.351Z,60.05
2018-02-10T02:05:14.919Z,60.14
2018-02-10T02:06:14.955Z,59.95
2018-02-10T02:07:14.983Z,60.14
2018-02-10T02:08:15.009Z,60.05
2018-02-10T02:09:15.036Z,60.24
2018-02-10T02:10:15.370Z,60.43
2018-02-10T02:11:15.150Z,60.14
2018-02-10T02:12:15.174Z,60.34
2018-02-10T02:13:15.152Z,60.34
2018-02-10T02:14:15.188Z,60.53
2018-02-10T02:15:15.262Z,60.53
2018-02-10T02:16:15.541Z,60.63
2018-02-10T02:17:15.273Z,60.72
2018-02-10T02:18:15.353Z,60.91
2018-02-10T02:19:15.337Z,61.49
2018-02-10T02:20:15.363Z,61.01
2018-02-10T02:21:15.404Z,60.91
2018-02-10T02:22:15.721Z,61.20
2018-02-10T02:23:15.449Z,61.20
2018-02-10T02:24:15.512Z,61.20
2018-02-10T02:25:15.506Z,60.91
2018-02-10T02:26:15.534Z,61.20
2018-02-10T02:27:15.578Z,61.30
2018-02-10T02:28:15.631Z,61.20
2018-02-10T02:29:15.936Z,60.82
2018-02-10T02:30:15.659Z,61.01
2018-02-10T02:31:15.688Z,61.01
2018-02-10T02:32:15.712Z,61.01
2018-02-10T02:33:15.792Z,61.01
2018-02-10T02:34:15.773Z,61.01
2018-02-10T02:35:15.802Z,61.01
2018-02-10T02:36:16.143Z,60.91
2018-02-10T02:37:15.863Z,61.01
2018-02-10T02:38:16.048Z,61.01
2018-02-10T02:39:15.922Z,60.91
2018-02-10T02:40:15.949Z,61.20
2018-02-10T02:41:15.985Z,60.53
2018-02-10T02:42:16.063Z,60.53
2018-02-10T02:43:16.392Z,60.53
2018-02-10T02:44:16.068Z,60.53
2018-02-10T02:45:16.103Z,60.53
2018-02-10T02:46:16.134Z,60.63
2018-02-10T02:47:16.156Z,60.43
2018-02-10T02:48:16.389Z,60.53
2018-02-10T02:49:16.222Z,60.63
2018-02-10T02:50:16.596Z,60.53
2018-02-10T02:51:16.276Z,61.20
2018-02-10T02:52:16.321Z,61.01
2018-02-10T02:53:16.341Z,60.91
2018-02-10T02:54:16.364Z,61.01
2018-02-10T02:55:16.404Z,61.01
2018-02-10T02:56:16.495Z,61.01
2018-02-10T02:57:16.749Z,60.91
2018-02-10T02:58:16.504Z,60.91
2018-02-10T02:59:16.665Z,61.01
2018-02-10T03:00:16.554Z,60.53
2018-02-10T03:01:16.571Z,61.01
2018-02-10T03:02:16.609Z,61.01
2018-02-10T03:03:16.659Z,60.91
2018-02-10T03:04:16.956Z,60.91
2018-02-10T03:05:16.685Z,60.72
2018-02-10T03:06:16.712Z,60.91
2018-02-10T03:07:16.745Z,60.72
2018-02-10T03:08:16.777Z,60.53
2018-02-10T03:09:16.812Z,60.53
2018-02-10T03:10:16.844Z,60.72
2018-02-10T03:11:17.161Z,60.91
2018-02-10T03:12:16.908Z,60.82
2018-02-10T03:13:17.078Z,60.91
2018-02-10T03:14:16.956Z,61.11
2018-02-10T03:15:16.980Z,60.91
2018-02-10T03:16:17.007Z,60.91
2018-02-10T03:17:17.339Z,60.91
2018-02-10T03:18:17.102Z,60.91
2018-02-10T03:19:17.137Z,61.01
2018-02-10T03:20:17.129Z,60.91
2018-02-10T03:21:17.187Z,61.20
2018-02-10T03:22:17.189Z,60.82
2018-02-10T03:23:17.552Z,60.91
2018-02-10T03:24:17.245Z,61.20
2018-02-10T03:25:17.295Z,60.91
2018-02-10T03:26:17.304Z,60.72
2018-02-10T03:27:17.335Z,61.20
2018-02-10T03:28:17.449Z,61.01
2018-02-10T03:29:17.697Z,61.01
2018-02-10T03:30:17.450Z,60.91
2018-02-10T03:31:17.464Z,60.91
2018-02-10T03:32:17.480Z,60.91
2018-02-10T03:33:17.566Z,60.91
2018-02-10T03:34:17.545Z,60.82
2018-02-10T03:35:17.888Z,60.82
2018-02-10T03:36:17.600Z,60.91
2018-02-10T03:37:17.628Z,60.91
2018-02-10T03:38:17.659Z,60.91
2018-02-10T03:39:17.732Z,60.91
2018-02-10T03:40:17.763Z,60.91
2018-02-10T03:41:18.046Z,60.82
2018-02-10T03:42:17.778Z,60.82
2018-02-10T03:43:17.859Z,60.91
2018-02-10T03:44:17.864Z,61.20
2018-02-10T03:45:17.872Z,61.20
2018-02-10T03:46:17.905Z,61.11
2018-02-10T03:47:18.318Z,61.20
2018-02-10T03:48:17.950Z,61.20
2018-02-10T03:49:17.987Z,61.40
2018-02-10T03:50:18.007Z,61.49
2018-02-10T03:51:18.040Z,61.68
2018-02-10T03:52:18.068Z,61.68
2018-02-10T03:53:18.546Z,61.68
2018-02-10T03:54:18.183Z,61.68
2018-02-10T03:55:18.153Z,61.30
2018-02-10T03:56:18.212Z,61.49
2018-02-10T03:57:18.264Z,61.49
2018-02-10T03:58:18.404Z,61.30
2018-02-10T03:59:18.652Z,61.49
2018-02-10T04:00:18.359Z,61.49
2018-02-10T04:01:18.357Z,61.49
2018-02-10T04:02:18.378Z,61.49
2018-02-10T04:03:18.403Z,61.40
2018-02-10T04:04:18.420Z,61.49
2018-02-10T04:05:18.455Z,61.68
2018-02-10T04:06:18.526Z,61.68
2018-02-10T04:07:18.512Z,61.40
2018-02-10T04:08:18.673Z,61.30
2018-02-10T04:09:18.651Z,61.30
2018-02-10T04:10:18.599Z,61.20
2018-02-10T04:11:18.992Z,61.11
2018-02-10T04:12:18.655Z,61.20
2018-02-10T04:13:18.703Z,61.30
2018-02-10T04:14:18.771Z,61.20
2018-02-10T04:15:18.791Z,61.30
2018-02-10T04:16:18.796Z,61.49
2018-02-10T04:17:19.207Z,61.30
2018-02-10T04:18:18.834Z,61.49
2018-02-10T04:19:18.955Z,61.49
2018-02-10T04:20:18.981Z,61.49
2018-02-10T04:21:18.931Z,61.68
2018-02-10T04:22:18.977Z,61.01
2018-02-10T04:23:19.382Z,61.11
2018-02-10T04:24:19.108Z,61.49
2018-02-10T04:25:19.050Z,61.20
2018-02-10T04:26:19.070Z,61.20
2018-02-10T04:27:19.215Z,61.01
2018-02-10T04:28:19.129Z,61.20
2018-02-10T04:29:19.208Z,61.49
2018-02-10T04:30:19.562Z,61.20
2018-02-10T04:31:19.218Z,61.11
2018-02-10T04:32:19.335Z,61.20
2018-02-10T04:33:19.276Z,61.40
2018-02-10T04:34:19.317Z,61.11
2018-02-10T04:35:19.505Z,61.11
2018-02-10T04:36:19.362Z,61.20
2018-02-10T04:37:19.722Z,61.20
2018-02-10T04:38:19.493Z,61.20
2018-02-10T04:39:19.461Z,61.20
2018-02-10T04:40:19.483Z,61.01
2018-02-10T04:41:19.514Z,61.11
2018-02-10T04:42:19.550Z,61.49
2018-02-10T04:43:19.582Z,61.30
2018-02-10T04:44:19.895Z,61.20
2018-02-10T04:45:19.638Z,61.49
2018-02-10T04:46:19.663Z,61.20
2018-02-10T04:47:19.720Z,61.20
2018-02-10T04:48:19.765Z,61.30
2018-02-10T04:49:19.743Z,61.20
2018-02-10T04:50:19.772Z,61.49
2018-02-10T04:51:20.149Z,61.20
2018-02-10T04:52:19.878Z,61.20
2018-02-10T04:53:20.081Z,61.30
2018-02-10T04:54:19.906Z,61.20
2018-02-10T04:55:19.929Z,61.20
2018-02-10T04:56:19.951Z,61.20
2018-02-10T04:57:20.033Z,61.68
2018-02-10T04:58:20.408Z,61.58
2018-02-10T04:59:20.039Z,61.49
2018-02-10T05:00:20.076Z,61.30
2018-02-10T05:01:20.152Z,61.01
2018-02-10T05:02:20.137Z,61.30
2018-02-10T05:03:20.270Z,61.58
2018-02-10T05:04:20.200Z,61.58
2018-02-10T05:05:20.514Z,61.68
2018-02-10T05:06:20.246Z,61.40
2018-02-10T05:07:20.271Z,61.58
2018-02-10T05:08:20.304Z,61.58
2018-02-10T05:09:20.376Z,61.30
2018-02-10T05:10:20.372Z,61.20
2018-02-10T05:11:20.390Z,61.20
2018-02-10T05:12:20.773Z,61.49
2018-02-10T05:13:20.457Z,61.68
2018-02-10T05:14:20.478Z,61.49
2018-02-10T05:15:20.830Z,61.68
2018-02-10T05:16:20.587Z,61.68
2018-02-10T05:17:20.593Z,61.78
2018-02-10T05:18:20.606Z,61.11
2018-02-10T05:19:21.010Z,61.40
2018-02-10T05:20:20.672Z,61.40
2018-02-10T05:21:20.682Z,61.40
2018-02-10T05:22:20.716Z,61.11
2018-02-10T05:23:20.768Z,61.49
2018-02-10T05:24:20.778Z,61.20
2018-02-10T05:25:20.858Z,61.49
2018-02-10T05:26:21.167Z,61.58
2018-02-10T05:27:20.888Z,61.49
2018-02-10T05:28:20.898Z,61.58
2018-02-10T05:29:20.928Z,61.30
2018-02-10T05:30:20.949Z,61.20
2018-02-10T05:31:20.979Z,61.20
2018-02-10T05:32:21.310Z,61.30
2018-02-10T05:33:21.193Z,61.30
2018-02-10T05:34:21.073Z,61.68
2018-02-10T05:35:21.098Z,61.30
2018-02-10T05:36:21.192Z,61.30
2018-02-10T05:37:21.161Z,61.49
2018-02-10T05:38:21.550Z,61.30
2018-02-10T05:39:21.352Z,61.68
2018-02-10T05:40:21.245Z,61.68
2018-02-10T05:41:21.272Z,61.11
2018-02-10T05:42:21.309Z,61.30
2018-02-10T05:43:21.394Z,61.49
2018-02-10T05:44:21.479Z,61.40
2018-02-10T05:45:21.698Z,61.49
2018-02-10T05:46:21.433Z,61.30
2018-02-10T05:47:21.462Z,61.40
2018-02-10T05:48:21.588Z,61.01
2018-02-10T05:49:21.520Z,61.30
2018-02-10T05:50:21.572Z,61.49
2018-02-10T05:51:21.606Z,61.30
2018-02-10T05:52:21.902Z,61.30
2018-02-10T05:53:21.677Z,61.68
2018-02-10T05:54:21.710Z,61.11
2018-02-10T05:55:21.687Z,61.11
2018-02-10T05:56:21.718Z,61.11
2018-02-10T05:57:21.744Z,61.11
2018-02-10T05:58:22.127Z,61.20
2018-02-10T05:59:21.809Z,61.20
2018-02-10T06:00:21.831Z,61.20
2018-02-10T06:01:21.864Z,61.20
2018-02-10T06:02:21.899Z,61.20
2018-02-10T06:03:22.039Z,61.11
2018-02-10T06:04:22.031Z,61.30
2018-02-10T06:05:22.278Z,61.20
2018-02-10T06:06:22.009Z,61.40
2018-02-10T06:07:22.035Z,61.49
2018-02-10T06:08:22.286Z,61.68
2018-02-10T06:09:22.100Z,62.07
2018-02-10T06:10:22.147Z,61.20
2018-02-10T06:11:22.453Z,61.68
2018-02-10T06:12:22.242Z,61.78
2018-02-10T06:13:22.215Z,61.40
2018-02-10T06:14:22.247Z,61.40
2018-02-10T06:15:22.272Z,61.49
2018-02-10T06:16:22.303Z,61.30
2018-02-10T06:17:22.644Z,61.40
2018-02-10T06:18:22.362Z,61.49
2018-02-10T06:19:22.390Z,61.40
2018-02-10T06:20:22.420Z,61.49
2018-02-10T06:21:22.486Z,61.30
2018-02-10T06:22:22.482Z,61.20
2018-02-10T06:23:22.919Z,61.58
2018-02-10T06:24:22.590Z,61.49
2018-02-10T06:25:22.582Z,61.58
2018-02-10T06:26:22.603Z,61.49
2018-02-10T06:27:22.631Z,61.68
2018-02-10T06:28:22.779Z,61.20
2018-02-10T06:29:23.076Z,61.30
2018-02-10T06:30:22.718Z,61.20
2018-02-10T06:31:22.747Z,61.20
2018-02-10T06:32:22.825Z,61.20
2018-02-10T06:33:22.831Z,61.30
2018-02-10T06:34:22.834Z,61.49
2018-02-10T06:35:23.419Z,61.49
2018-02-10T06:36:23.002Z,61.20
2018-02-10T06:37:22.924Z,61.20
2018-02-10T06:38:22.965Z,61.49
2018-02-10T06:39:23.064Z,61.30
2018-02-10T06:40:23.018Z,61.40
2018-02-10T06:41:23.346Z,61.20
2018-02-10T06:42:23.161Z,61.11
2018-02-10T06:43:23.101Z,61.11
2018-02-10T06:44:23.127Z,61.20
2018-02-10T06:45:23.159Z,60.91
2018-02-10T06:46:23.278Z,61.20
2018-02-10T06:47:23.588Z,61.30
2018-02-10T06:48:23.380Z,61.30
2018-02-10T06:49:23.380Z,61.68
2018-02-10T06:50:23.306Z,61.49
2018-02-10T06:51:23.334Z,61.11
2018-02-10T06:52:23.411Z,61.01
2018-02-10T06:53:23.724Z,61.11
2018-02-10T06:54:23.532Z,61.20
2018-02-10T06:55:23.451Z,61.11
2018-02-10T06:56:23.528Z,61.20
2018-02-10T06:57:23.550Z,61.20
2018-02-10T06:58:23.544Z,61.30
2018-02-10T06:59:23.982Z,61.20
2018-02-10T07:00:23.599Z,61.20
2018-02-10T07:01:23.651Z,61.20
2018-02-10T07:02:23.674Z,61.11
2018-02-10T07:03:23.689Z,60.91
2018-02-10T07:04:23.871Z,61.20
2018-02-10T07:05:24.046Z,61.20
2018-02-10T07:06:23.779Z,60.72
2018-02-10T07:07:23.809Z,61.11
2018-02-10T07:08:23.836Z,60.82
2018-02-10T07:09:23.865Z,61.11
2018-02-10T07:10:23.895Z,60.91
2018-02-10T07:11:24.231Z,60.91
2018-02-10T07:12:23.952Z,60.91
2018-02-10T07:13:23.981Z,60.82
2018-02-10T07:14:24.027Z,60.82
2018-02-10T07:15:24.044Z,61.11
2018-02-10T07:16:24.080Z,60.82
2018-02-10T07:17:24.102Z,60.82
2018-02-10T07:18:24.530Z,60.82
2018-02-10T07:19:24.159Z,60.82
2018-02-10T07:20:24.389Z,60.82
2018-02-10T07:21:24.258Z,60.82
2018-02-10T07:22:24.252Z,60.82
2018-02-10T07:23:24.295Z,60.72
2018-02-10T07:24:24.330Z,60.91
2018-02-10T07:25:24.641Z,60.91
2018-02-10T07:26:24.368Z,61.20
2018-02-10T07:27:24.394Z,61.20
2018-02-10T07:28:24.422Z,61.01
2018-02-10T07:29:24.456Z,60.91
2018-02-10T07:30:24.493Z,60.91
2018-02-10T07:31:24.866Z,60.82
2018-02-10T07:32:24.587Z,60.91
2018-02-10T07:33:24.622Z,60.91
2018-02-10T07:34:24.632Z,60.82
2018-02-10T07:35:24.654Z,61.20
2018-02-10T07:36:24.657Z,61.01
2018-02-10T07:37:25.070Z,60.91
2018-02-10T07:38:24.827Z,60.82
2018-02-10T07:39:24.751Z,60.82
2018-02-10T07:40:24.778Z,60.82
2018-02-10T07:41:24.804Z,60.82
2018-02-10T07:42:24.838Z,60.91
2018-02-10T07:43:24.868Z,61.01
2018-02-10T07:44:25.203Z,61.01
2018-02-10T07:45:24.924Z,61.01
2018-02-10T07:46:24.977Z,61.01
2018-02-10T07:47:24.996Z,60.82
2018-02-10T07:48:25.013Z,61.01
2018-02-10T07:49:25.047Z,61.11
2018-02-10T07:50:25.423Z,61.20
2018-02-10T07:51:25.102Z,61.20
2018-02-10T07:52:25.139Z,61.49
2018-02-10T07:53:25.169Z,61.20
2018-02-10T07:54:25.193Z,61.68
2018-02-10T07:55:25.221Z,61.68
2018-02-10T07:56:25.551Z,61.49
2018-02-10T07:57:25.282Z,61.20
2018-02-10T07:58:25.305Z,61.20
2018-02-10T07:59:25.351Z,61.87
2018-02-10T08:00:25.368Z,61.87
2018-02-10T08:01:25.399Z,62.07
2018-02-10T08:02:25.722Z,61.68
2018-02-10T08:03:25.456Z,61.97
2018-02-10T08:04:25.487Z,62.26
2018-02-10T08:05:25.517Z,62.26
2018-02-10T08:06:25.541Z,62.07
2018-02-10T08:07:25.575Z,61.58
2018-02-10T08:08:25.911Z,61.97
2018-02-10T08:09:25.683Z,61.97
2018-02-10T08:10:25.710Z,61.49
2018-02-10T08:11:25.690Z,61.49
2018-02-10T08:12:25.729Z,61.49
2018-02-10T08:13:25.754Z,61.40
2018-02-10T08:14:26.159Z,61.30
2018-02-10T08:15:25.809Z,61.68
2018-02-10T08:16:25.841Z,61.40
2018-02-10T08:17:25.868Z,61.30
2018-02-10T08:18:25.901Z,61.58
2018-02-10T08:19:25.931Z,61.68
2018-02-10T08:20:26.260Z,61.20
2018-02-10T08:21:25.987Z,61.68
2018-02-10T08:22:26.024Z,61.58
2018-02-10T08:23:26.062Z,62.26
2018-02-10T08:24:26.180Z,62.07
2018-02-10T08:25:26.110Z,62.26
2018-02-10T08:26:26.447Z,62.16
2018-02-10T08:27:26.182Z,62.16
2018-02-10T08:28:26.226Z,62.26
2018-02-10T08:29:26.516Z,62.07
2018-02-10T08:30:26.280Z,62.16
2018-02-10T08:31:26.295Z,62.07
2018-02-10T08:32:26.629Z,61.68
2018-02-10T08:33:26.960Z,61.30
2018-02-10T08:34:26.415Z,61.40
2018-02-10T08:35:26.409Z,61.30
2018-02-10T08:36:26.602Z,61.40
2018-02-10T08:37:26.460Z,61.30
2018-02-10T08:38:26.784Z,61.20
2018-02-10T08:39:26.576Z,61.30
2018-02-10T08:40:26.548Z,61.30
2018-02-10T08:41:26.607Z,61.30
2018-02-10T08:42:26.623Z,61.58
2018-02-10T08:43:26.672Z,61.49
2018-02-10T08:44:26.980Z,61.58
2018-02-10T08:45:26.721Z,61.30
2018-02-10T08:46:26.732Z,61.49
2018-02-10T08:47:26.759Z,61.40
2018-02-10T08:48:26.785Z,61.78
2018-02-10T08:49:26.812Z,61.78
2018-02-10T08:50:27.144Z,61.40
2018-02-10T08:51:26.870Z,61.40
2018-02-10T08:52:26.903Z,61.40
2018-02-10T08:53:26.934Z,61.49
2018-02-10T08:54:27.062Z,61.40
2018-02-10T08:55:27.002Z,61.30
2018-02-10T08:56:27.317Z,61.58
2018-02-10T08:57:27.070Z,61.20
2018-02-10T08:58:27.090Z,61.58
2018-02-10T08:59:27.109Z,61.58
2018-02-10T09:00:27.139Z,61.49
2018-02-10T09:01:27.166Z,61.78
2018-02-10T09:02:27.497Z,61.40
2018-02-10T09:03:27.234Z,61.97
2018-02-10T09:04:27.261Z,61.87
2018-02-10T09:05:27.375Z,61.87
2018-02-10T09:06:27.314Z,62.16
2018-02-10T09:07:27.397Z,62.07
2018-02-10T09:08:27.743Z,62.16
2018-02-10T09:09:27.414Z,61.97
2018-02-10T09:10:27.434Z,61.97
2018-02-10T09:11:27.459Z,62.07
2018-02-10T09:12:27.500Z,61.87
2018-02-10T09:13:27.527Z,61.78
2018-02-10T09:14:27.863Z,61.58
2018-02-10T09:15:27.591Z,61.78
2018-02-10T09:16:27.631Z,61.40
2018-02-10T09:17:27.640Z,61.30
2018-02-10T09:18:27.867Z,61.49
2018-02-10T09:19:27.951Z,61.20
2018-02-10T09:20:28.075Z,61.30
2018-02-10T09:21:27.777Z,61.49
2018-02-10T09:22:27.853Z,61.20
2018-02-10T09:23:27.821Z,60.82
2018-02-10T09:24:27.865Z,61.01
2018-02-10T09:25:27.875Z,61.11
2018-02-10T09:26:28.265Z,60.34
2018-02-10T09:27:27.943Z,60.63
2018-02-10T09:28:27.968Z,60.63
2018-02-10T09:29:28.003Z,60.63
2018-02-10T09:30:28.048Z,60.43
2018-02-10T09:31:28.053Z,60.05
2018-02-10T09:32:28.382Z,60.24
2018-02-10T09:33:28.125Z,59.86
2018-02-10T09:34:28.292Z,60.24
2018-02-10T09:35:28.177Z,60.05
2018-02-10T09:36:28.201Z,59.95
2018-02-10T09:37:28.230Z,60.14
2018-02-10T09:38:28.619Z,59.66
2018-02-10T09:39:28.447Z,59.57
2018-02-10T09:40:28.327Z,59.76
2018-02-10T09:41:28.380Z,59.66
2018-02-10T09:42:28.392Z,59.28
2018-02-10T09:43:28.410Z,59.19
2018-02-10T09:44:28.787Z,59.09
2018-02-10T09:45:28.476Z,59.19
2018-02-10T09:46:28.497Z,59.19
2018-02-10T09:47:28.529Z,59.47
2018-02-10T09:48:28.558Z,59.38
2018-02-10T09:49:28.584Z,59.47
2018-02-10T09:50:28.919Z,59.47
2018-02-10T09:51:28.645Z,59.47
2018-02-10T09:52:28.672Z,59.38
2018-02-10T09:53:28.704Z,59.38
2018-02-10T09:54:28.739Z,59.09
2018-02-10T09:55:28.765Z,58.89
2018-02-10T09:56:29.099Z,59.19
2018-02-10T09:57:28.825Z,59.47
2018-02-10T09:58:28.860Z,59.66
2018-02-10T09:59:28.979Z,59.28
2018-02-10T10:00:28.960Z,59.28
2018-02-10T10:01:28.996Z,59.19
2018-02-10T10:02:29.272Z,59.19
2018-02-10T10:03:29.012Z,59.38
2018-02-10T10:04:29.034Z,59.28
2018-02-10T10:05:29.056Z,59.09
2018-02-10T10:06:29.140Z,59.28
2018-02-10T10:07:29.150Z,59.38
2018-02-10T10:08:29.450Z,59.28
2018-02-10T10:09:29.177Z,59.47
2018-02-10T10:10:29.269Z,59.57
2018-02-10T10:11:29.235Z,59.66
2018-02-10T10:12:29.272Z,59.66
2018-02-10T10:13:29.303Z,59.76
2018-02-10T10:14:29.636Z,59.86
2018-02-10T10:15:29.366Z,59.76
2018-02-10T10:16:29.395Z,59.86
2018-02-10T10:17:29.486Z,59.66
2018-02-10T10:18:29.443Z,59.66
2018-02-10T10:19:29.473Z,59.57
2018-02-10T10:20:29.805Z,59.57
2018-02-10T10:21:29.539Z,59.57
2018-02-10T10:22:29.569Z,59.86
2018-02-10T10:23:29.589Z,59.76
2018-02-10T10:24:29.624Z,59.86
2018-02-10T10:25:29.651Z,59.66
2018-02-10T10:26:30.261Z,59.66
2018-02-10T10:27:29.738Z,59.66
2018-02-10T10:28:29.800Z,59.57
2018-02-10T10:29:29.820Z,59.57
2018-02-10T10:30:29.807Z,59.66
2018-02-10T10:31:29.829Z,59.38
2018-02-10T10:32:30.180Z,59.47
2018-02-10T10:33:29.896Z,59.66
2018-02-10T10:34:29.932Z,59.66
2018-02-10T10:35:29.997Z,59.47
2018-02-10T10:36:29.988Z,59.66
2018-02-10T10:37:30.008Z,58.99
2018-02-10T10:38:30.336Z,59.28
2018-02-10T10:39:30.068Z,59.57
2018-02-10T10:40:30.110Z,59.28
2018-02-10T10:41:30.137Z,58.89
2018-02-10T10:42:30.165Z,59.38
2018-02-10T10:43:30.228Z,59.38
2018-02-10T10:44:30.565Z,59.19
2018-02-10T10:45:30.248Z,59.28
2018-02-10T10:46:30.273Z,59.38
2018-02-10T10:47:30.307Z,59.38
2018-02-10T10:48:30.356Z,59.28
2018-02-10T10:49:30.364Z,59.09
2018-02-10T10:50:30.695Z,59.09
2018-02-10T10:51:30.423Z,59.38
2018-02-10T10:52:30.471Z,59.28
2018-02-10T10:53:30.481Z,59.19
2018-02-10T10:54:30.511Z,59.19
2018-02-10T10:55:30.550Z,59.38
2018-02-10T10:56:30.919Z,59.38
2018-02-10T10:57:30.602Z,59.09
2018-02-10T10:58:30.643Z,59.19
2018-02-10T10:59:30.971Z,59.09
2018-02-10T11:00:30.689Z,58.99
2018-02-10T11:01:30.719Z,59.28
2018-02-10T11:02:31.052Z,59.38
2018-02-10T11:03:30.785Z,58.89
2018-02-10T11:04:30.808Z,59.19
2018-02-10T11:05:30.869Z,59.28
2018-02-10T11:06:30.869Z,58.99
2018-02-10T11:07:30.900Z,59.19
2018-02-10T11:08:31.241Z,59.28
2018-02-10T11:09:31.108Z,59.28
2018-02-10T11:10:30.986Z,59.38
2018-02-10T11:11:31.020Z,59.38
2018-02-10T11:12:31.055Z,59.28
2018-02-10T11:13:31.128Z,59.28
2018-02-10T11:14:31.495Z,59.38
2018-02-10T11:15:31.189Z,59.28
2018-02-10T11:16:31.168Z,59.38
2018-02-10T11:17:31.199Z,59.66
2018-02-10T11:18:31.225Z,59.19
2018-02-10T11:19:31.308Z,59.38
2018-02-10T11:20:31.591Z,59.47
2018-02-10T11:21:31.322Z,59.28
2018-02-10T11:22:31.348Z,59.57
2018-02-10T11:23:31.384Z,59.28
2018-02-10T11:24:31.477Z,59.38
2018-02-10T11:25:31.437Z,59.19
2018-02-10T11:26:31.768Z,59.09
2018-02-10T11:27:31.494Z,59.28
2018-02-10T11:28:31.522Z,59.47
2018-02-10T11:29:31.553Z,59.19
2018-02-10T11:30:31.580Z,59.47
2018-02-10T11:31:31.627Z,59.47
2018-02-10T11:32:31.942Z,59.38
2018-02-10T11:33:31.730Z,59.47
2018-02-10T11:34:31.700Z,59.47
2018-02-10T11:35:31.746Z,59.38
2018-02-10T11:36:31.759Z,59.47
2018-02-10T11:37:31.796Z,59.38
2018-02-10T11:38:32.221Z,59.38
2018-02-10T11:39:31.851Z,59.38
2018-02-10T11:40:31.881Z,59.38
2018-02-10T11:41:31.910Z,59.09
2018-02-10T11:42:31.994Z,59.19
2018-02-10T11:43:31.976Z,59.47
2018-02-10T11:44:32.314Z,59.47
2018-02-10T11:45:32.043Z,59.38
2018-02-10T11:46:32.063Z,59.19
2018-02-10T11:47:32.112Z,59.38
2018-02-10T11:48:32.127Z,59.19
2018-02-10T11:49:32.153Z,59.47
2018-02-10T11:50:32.482Z,59.38
2018-02-10T11:51:32.311Z,59.38
2018-02-10T11:52:32.293Z,59.38
2018-02-10T11:53:32.276Z,59.28
2018-02-10T11:54:32.346Z,59.38
2018-02-10T11:55:32.336Z,59.38
2018-02-10T11:56:32.656Z,59.38
2018-02-10T11:57:32.401Z,59.28
2018-02-10T11:58:32.464Z,59.38
2018-02-10T11:59:32.493Z,59.38
2018-02-10T12:00:32.490Z,59.38
2018-02-10T12:01:32.511Z,59.66
2018-02-10T12:02:32.833Z,59.57
2018-02-10T12:03:32.774Z,59.66
2018-02-10T12:04:32.592Z,59.66
2018-02-10T12:05:32.643Z,59.66
2018-02-10T12:06:32.665Z,59.28
2018-02-10T12:07:32.686Z,59.28
2018-02-10T12:08:33.020Z,59.28
2018-02-10T12:09:32.738Z,59.38
2018-02-10T12:10:32.781Z,59.38
2018-02-10T12:11:32.903Z,59.38
2018-02-10T12:12:32.832Z,59.47
2018-02-10T12:13:32.884Z,59.09
2018-02-10T12:14:33.222Z,59.19
2018-02-10T12:15:32.925Z,59.47
2018-02-10T12:16:32.948Z,59.47
2018-02-10T12:17:32.990Z,59.19
2018-02-10T12:18:33.010Z,59.38
2018-02-10T12:19:33.096Z,59.47
2018-02-10T12:20:33.373Z,59.47
2018-02-10T12:21:33.114Z,59.38
2018-02-10T12:22:33.138Z,59.47
2018-02-10T12:23:33.159Z,59.38
2018-02-10T12:24:33.191Z,59.38
2018-02-10T12:25:33.214Z,59.47
2018-02-10T12:26:33.557Z,59.38
2018-02-10T12:27:33.315Z,59.19
2018-02-10T12:28:33.305Z,59.19
2018-02-10T12:29:33.345Z,59.38
2018-02-10T12:30:33.368Z,59.47
2018-02-10T12:31:33.397Z,59.47
2018-02-10T12:32:33.718Z,59.57
2018-02-10T12:33:33.508Z,59.38
2018-02-10T12:34:33.540Z,59.28
2018-02-10T12:35:33.521Z,59.38
2018-02-10T12:36:33.574Z,59.28
2018-02-10T12:37:33.579Z,59.38
2018-02-10T12:38:33.904Z,59.28
2018-02-10T12:39:33.631Z,59.38
2018-02-10T12:40:33.670Z,59.28
2018-02-10T12:41:33.690Z,59.47
2018-02-10T12:42:33.732Z,59.38
2018-02-10T12:43:33.751Z,59.47
2018-02-10T12:44:34.080Z,59.19
2018-02-10T12:45:34.056Z,59.38
2018-02-10T12:46:33.838Z,59.38
2018-02-10T12:47:33.904Z,59.38
2018-02-10T12:48:33.963Z,59.66
2018-02-10T12:49:33.929Z,59.19
2018-02-10T12:50:34.263Z,59.47
2018-02-10T12:51:33.986Z,59.28
2018-02-10T12:52:34.016Z,59.38